createdAt,value
2022-12-24T00:00:10.421Z,5.41
2022-12-24T00:04:32.327Z,5.30
2022-12-24T00:08:34.324Z,5.20
2022-12-24T00:12:36.430Z,5.15
2022-12-24T00:16:38.356Z,5.02
2022-12-24T00:20:40.258Z,4.92
2022-12-24T00:24:42.237Z,4.88
2022-12-24T00:28:44.394Z,4.86
2022-12-24T00:32:46.255Z,4.89
2022-12-24T00:36:48.132Z,4.90
2022-12-24T00:40:49.971Z,4.94
2022-12-24T00:44:51.845Z,5.02
2022-12-24T00:48:54.123Z,5.05
2022-12-24T00:52:56.079Z,5.02
2022-12-24T00:56:58.005Z,4.99
2022-12-24T01:01:00.085Z,4.98
2022-12-24T01:05:11.178Z,4.94
2022-12-24T01:09:13.076Z,4.87
2022-12-24T01:13:14.924Z,4.81
2022-12-24T01:17:16.953Z,4.82
2022-12-24T01:21:18.930Z,4.84
2022-12-24T01:25:20.789Z,4.84
2022-12-24T01:29:22.685Z,4.79
2022-12-24T01:33:28.430Z,4.75
2022-12-24T01:37:30.291Z,4.70
2022-12-24T01:41:51.410Z,4.70
2022-12-24T01:45:59.813Z,4.69
2022-12-24T01:50:13.060Z,4.70
2022-12-24T01:54:25.111Z,4.70
2022-12-24T01:58:27.327Z,4.65
2022-12-24T02:02:29.734Z,4.60
2022-12-24T02:06:31.801Z,4.60
2022-12-24T02:10:33.816Z,4.62
2022-12-24T02:14:36.945Z,4.62
2022-12-24T02:18:59.249Z,4.55
2022-12-24T02:23:13.627Z,4.51
2022-12-24T02:27:31.133Z,4.52
2022-12-24T02:31:35.821Z,4.56
2022-12-24T02:35:46.133Z,4.59
2022-12-24T02:40:15.748Z,4.62
2022-12-24T02:44:21.287Z,4.62
2022-12-24T02:48:25.009Z,4.59
2022-12-24T02:52:37.814Z,4.54
2022-12-24T02:56:51.955Z,4.56
2022-12-24T03:01:18.146Z,4.63
2022-12-24T03:05:26.134Z,4.70
2022-12-24T03:09:38.571Z,4.68
2022-12-24T03:13:42.101Z,4.64
2022-12-24T03:17:46.915Z,4.61
2022-12-24T03:21:49.835Z,4.61
2022-12-24T03:25:52.083Z,4.59
2022-12-24T03:29:54.486Z,4.58
2022-12-24T03:33:56.412Z,4.57
2022-12-24T03:37:58.241Z,4.52
2022-12-24T03:42:00.134Z,4.49
2022-12-24T03:46:07.071Z,4.50
2022-12-24T03:50:09.450Z,4.55
2022-12-24T03:54:11.442Z,4.57
2022-12-24T03:58:13.291Z,4.56
2022-12-24T04:02:15.505Z,4.54
2022-12-24T04:06:17.627Z,4.52
2022-12-24T04:10:19.501Z,4.49
2022-12-24T04:14:21.359Z,4.42
2022-12-24T04:18:23.382Z,4.41
2022-12-24T04:22:25.272Z,4.44
2022-12-24T04:26:27.525Z,4.43
2022-12-24T04:30:29.365Z,4.38
2022-12-24T04:34:31.338Z,4.33
2022-12-24T04:38:34.358Z,4.29
2022-12-24T04:42:36.793Z,4.31
2022-12-24T04:46:38.859Z,4.35
2022-12-24T04:50:40.706Z,4.36
2022-12-24T04:54:42.599Z,4.32
2022-12-24T04:58:44.949Z,4.25
2022-12-24T05:02:46.976Z,4.16
2022-12-24T05:06:49.015Z,4.09
2022-12-24T05:10:57.904Z,4.05
2022-12-24T05:14:59.676Z,4.02
2022-12-24T05:19:01.529Z,4.01
2022-12-24T05:23:21.923Z,4.03
2022-12-24T05:27:23.825Z,4.07
2022-12-24T05:31:27.715Z,4.11
2022-12-24T05:35:29.766Z,4.10
2022-12-24T05:39:31.711Z,4.14
2022-12-24T05:43:33.757Z,4.15
2022-12-24T05:47:41.289Z,4.15
2022-12-24T05:51:45.116Z,4.14
2022-12-24T05:55:47.125Z,4.08
2022-12-24T05:59:48.996Z,4.06
2022-12-24T06:03:52.038Z,4.11
2022-12-24T06:07:53.935Z,4.14
2022-12-24T06:11:55.939Z,4.13
2022-12-24T06:15:59.939Z,4.14
2022-12-24T06:20:02.231Z,4.10
2022-12-24T06:24:04.337Z,4.03
2022-12-24T06:28:06.221Z,4.01
2022-12-24T06:32:08.078Z,4.03
2022-12-24T06:36:17.435Z,4.06
2022-12-24T06:40:19.907Z,4.06
2022-12-24T06:44:21.956Z,3.99
2022-12-24T06:48:23.929Z,3.95
2022-12-24T06:52:25.973Z,3.92
2022-12-24T06:56:27.921Z,3.91
2022-12-24T07:00:30.001Z,3.94
2022-12-24T07:04:32.161Z,3.96
2022-12-24T07:08:35.799Z,3.97
2022-12-24T07:12:37.921Z,3.95
2022-12-24T07:16:39.934Z,3.94
2022-12-24T07:20:42.473Z,3.94
2022-12-24T07:24:44.288Z,3.95
2022-12-24T07:28:46.412Z,3.98
2022-12-24T07:32:48.599Z,3.99
2022-12-24T07:36:50.485Z,4.01
2022-12-24T07:40:52.427Z,4.02
2022-12-24T07:44:55.413Z,3.98
2022-12-24T07:48:57.561Z,3.95
2022-12-24T07:52:59.349Z,3.96
2022-12-24T07:57:01.587Z,3.98
2022-12-24T08:01:03.738Z,4.00
2022-12-24T08:05:06.262Z,4.03
2022-12-24T08:09:08.157Z,4.04
2022-12-24T08:13:10.061Z,4.01
2022-12-24T08:17:11.950Z,4.01
2022-12-24T08:21:13.980Z,4.02
2022-12-24T08:25:15.969Z,4.06
2022-12-24T08:29:17.893Z,4.09
2022-12-24T08:33:20.334Z,4.16
2022-12-24T08:37:22.486Z,4.21
2022-12-24T08:41:24.587Z,4.18
2022-12-24T08:45:26.610Z,4.16
2022-12-24T08:49:28.524Z,4.15
2022-12-24T08:53:30.363Z,4.15
2022-12-24T08:57:35.672Z,4.17
2022-12-24T09:01:38.461Z,4.19
2022-12-24T09:05:40.361Z,4.18
2022-12-24T09:09:42.204Z,4.18
2022-12-24T09:13:44.679Z,4.23
2022-12-24T09:17:46.532Z,4.27
2022-12-24T09:21:48.625Z,4.30
2022-12-24T09:25:50.523Z,4.27
2022-12-24T09:29:52.515Z,4.27
2022-12-24T09:33:55.023Z,4.26
2022-12-24T09:38:02.825Z,4.29
2022-12-24T09:42:26.548Z,4.29
2022-12-24T09:46:34.662Z,4.27
2022-12-24T09:50:58.712Z,4.20
2022-12-24T09:55:26.720Z,4.15
2022-12-24T09:59:40.492Z,4.14
2022-12-24T10:03:43.084Z,4.13
2022-12-24T10:07:51.203Z,4.11
2022-12-24T10:12:01.210Z,4.13
2022-12-24T10:16:19.897Z,4.17
2022-12-24T10:20:46.943Z,4.21
2022-12-24T10:25:17.150Z,4.20
2022-12-24T10:29:31.728Z,4.18
2022-12-24T10:33:43.203Z,4.20
2022-12-24T10:37:48.064Z,4.24
2022-12-24T10:41:54.719Z,4.26
2022-12-24T10:46:01.131Z,4.28
2022-12-24T10:50:15.155Z,4.27
2022-12-24T10:54:27.305Z,4.24
2022-12-24T10:58:30.447Z,4.26
2022-12-24T11:02:34.068Z,4.28
2022-12-24T11:07:11.791Z,4.29
2022-12-24T11:11:16.279Z,4.32
2022-12-24T11:15:19.769Z,4.34
2022-12-24T11:19:41.900Z,4.38
2022-12-24T11:23:50.213Z,4.40
2022-12-24T11:27:52.107Z,4.38
2022-12-24T11:32:16.652Z,4.38
2022-12-24T11:36:23.143Z,4.43
2022-12-24T11:40:28.277Z,4.45
2022-12-24T11:44:30.609Z,4.49
2022-12-24T11:48:34.316Z,4.51
2022-12-24T11:52:37.098Z,4.50
2022-12-24T11:56:44.249Z,4.51
2022-12-24T12:00:48.240Z,4.53
2022-12-24T12:04:55.409Z,4.48
2022-12-24T12:09:04.901Z,4.50
2022-12-24T12:13:22.887Z,4.51
2022-12-24T12:17:39.909Z,4.57
2022-12-24T12:21:46.431Z,4.57
2022-12-24T12:25:54.911Z,4.53
2022-12-24T12:30:04.378Z,4.46
2022-12-24T12:34:16.037Z,4.46
2022-12-24T12:38:24.657Z,4.48
2022-12-24T12:42:36.863Z,4.45
2022-12-24T12:46:57.596Z,4.40
2022-12-24T12:51:12.697Z,4.39
2022-12-24T12:55:24.783Z,4.39
2022-12-24T12:59:39.934Z,4.35
2022-12-24T13:04:21.480Z,4.36
2022-12-24T13:08:23.349Z,4.38
2022-12-24T13:12:37.459Z,4.36
2022-12-24T13:17:04.510Z,4.34
2022-12-24T13:21:16.517Z,4.35
2022-12-24T13:25:23.308Z,4.35
2022-12-24T13:29:31.620Z,4.33
2022-12-24T13:33:33.547Z,4.31
2022-12-24T13:37:36.399Z,4.31
2022-12-24T13:41:48.812Z,4.28
2022-12-24T13:45:51.740Z,4.25
2022-12-24T13:49:54.336Z,4.24
2022-12-24T13:53:59.266Z,4.26
2022-12-24T13:58:05.361Z,4.28
2022-12-24T14:02:20.035Z,4.28
2022-12-24T14:06:27.623Z,4.29
2022-12-24T14:10:57.765Z,4.27
2022-12-24T14:15:58.025Z,4.25
2022-12-24T14:20:06.770Z,4.24
2022-12-24T14:24:33.729Z,4.24
2022-12-24T14:28:41.607Z,4.23
2022-12-24T14:32:43.800Z,4.21
2022-12-24T14:36:47.908Z,4.20
2022-12-24T14:41:02.111Z,4.19
2022-12-24T14:45:14.546Z,4.18
2022-12-24T14:49:27.676Z,4.19
2022-12-24T14:53:56.984Z,4.20
2022-12-24T14:58:30.549Z,4.22
2022-12-24T15:02:46.395Z,4.25
2022-12-24T15:06:52.753Z,4.24
2022-12-24T15:10:59.971Z,4.18
2022-12-24T15:15:03.026Z,4.13
2022-12-24T15:19:28.574Z,4.10
2022-12-24T15:23:33.727Z,4.10
2022-12-24T15:27:39.275Z,4.08
2022-12-24T15:31:41.211Z,4.05
2022-12-24T15:35:47.425Z,4.04
2022-12-24T15:40:02.024Z,4.01
2022-12-24T15:44:04.764Z,4.00
2022-12-24T15:48:10.277Z,3.99
2022-12-24T15:52:15.193Z,3.98
2022-12-24T15:56:44.228Z,3.98
2022-12-24T16:01:00.721Z,3.98
2022-12-24T16:05:21.196Z,3.98
2022-12-24T16:09:30.616Z,3.96
2022-12-24T16:13:39.941Z,3.96
2022-12-24T16:17:48.727Z,3.94
2022-12-24T16:21:52.688Z,3.94
2022-12-24T16:25:54.559Z,3.95
2022-12-24T16:29:57.281Z,3.97
2022-12-24T16:34:00.943Z,4.00
2022-12-24T16:38:02.968Z,3.97
2022-12-24T16:42:24.197Z,3.92
2022-12-24T16:46:26.166Z,3.90
2022-12-24T16:50:28.273Z,3.87
2022-12-24T16:54:30.199Z,3.88
2022-12-24T16:58:32.656Z,3.89
2022-12-24T17:02:34.693Z,3.91
2022-12-24T17:06:36.711Z,3.90
2022-12-24T17:10:38.986Z,3.87
2022-12-24T17:14:41.966Z,3.87
2022-12-24T17:18:43.893Z,3.88
2022-12-24T17:22:45.796Z,3.91
2022-12-24T17:26:47.712Z,3.94
2022-12-24T17:30:49.696Z,4.01
2022-12-24T17:34:51.602Z,4.09
2022-12-24T17:38:53.509Z,4.12
2022-12-24T17:42:55.336Z,4.13
2022-12-24T17:46:57.388Z,4.19
2022-12-24T17:51:05.029Z,4.24
2022-12-24T17:55:08.538Z,4.27
2022-12-24T17:59:10.488Z,4.25
2022-12-24T18:03:13.848Z,4.24
2022-12-24T18:07:16.209Z,4.24
2022-12-24T18:11:24.481Z,4.27
2022-12-24T18:15:26.344Z,4.33
2022-12-24T18:19:28.222Z,4.35
2022-12-24T18:23:30.202Z,4.35
2022-12-24T18:27:34.724Z,4.36
2022-12-24T18:31:36.755Z,4.36
2022-12-24T18:35:38.808Z,4.39
2022-12-24T18:39:40.645Z,4.40
2022-12-24T18:43:42.547Z,4.36
2022-12-24T18:47:44.413Z,4.31
2022-12-24T18:51:46.320Z,4.30
2022-12-24T18:55:48.390Z,4.26
2022-12-24T18:59:50.421Z,4.21
2022-12-24T19:03:52.937Z,4.22
2022-12-24T19:07:54.763Z,4.21
2022-12-24T19:11:57.422Z,4.17
2022-12-24T19:16:00.020Z,4.09
2022-12-24T19:20:01.982Z,4.03
2022-12-24T19:24:04.076Z,4.02
2022-12-24T19:28:08.293Z,4.00
2022-12-24T19:32:10.214Z,4.00
2022-12-24T19:36:16.673Z,4.02
2022-12-24T19:40:18.648Z,4.03
2022-12-24T19:44:20.634Z,4.04
2022-12-24T19:48:22.633Z,4.05
2022-12-24T19:52:24.438Z,4.07
2022-12-24T19:56:29.607Z,4.11
2022-12-24T20:00:31.595Z,4.09
2022-12-24T20:04:33.557Z,4.09
2022-12-24T20:08:36.567Z,4.08
2022-12-24T20:12:38.461Z,4.06
2022-12-24T20:16:40.371Z,4.08
2022-12-24T20:20:42.315Z,4.09
2022-12-24T20:24:44.173Z,4.06
2022-12-24T20:28:47.259Z,3.99
2022-12-24T20:32:53.965Z,3.92
2022-12-24T20:36:55.805Z,3.89
2022-12-24T20:40:57.972Z,3.90
2022-12-24T20:45:00.347Z,3.86
2022-12-24T20:49:02.253Z,3.76
2022-12-24T20:53:04.081Z,3.67
2022-12-24T20:57:08.030Z,3.60
2022-12-24T21:01:23.728Z,3.58
2022-12-24T21:05:26.021Z,3.61
2022-12-24T21:09:27.862Z,3.64
2022-12-24T21:13:29.692Z,3.65
2022-12-24T21:17:31.519Z,3.63
2022-12-24T21:21:35.028Z,3.60
2022-12-24T21:25:36.883Z,3.62
2022-12-24T21:29:38.738Z,3.64
2022-12-24T21:33:41.037Z,3.66
2022-12-24T21:37:43.344Z,3.68
2022-12-24T21:41:45.419Z,3.67
2022-12-24T21:45:49.198Z,3.64
2022-12-24T21:50:09.758Z,3.68
2022-12-24T21:54:27.866Z,3.72
2022-12-24T21:58:29.701Z,3.75
2022-12-24T22:02:31.625Z,3.77
2022-12-24T22:06:52.496Z,3.74
2022-12-24T22:11:12.887Z,3.69
2022-12-24T22:15:14.717Z,3.69
2022-12-24T22:19:16.608Z,3.67
2022-12-24T22:23:19.513Z,3.71
2022-12-24T22:27:21.439Z,3.74
2022-12-24T22:31:23.774Z,3.76
2022-12-24T22:35:25.724Z,3.76
2022-12-24T22:39:27.589Z,3.73
2022-12-24T22:43:29.454Z,3.72
2022-12-24T22:47:31.357Z,3.72
2022-12-24T22:51:33.450Z,3.65
2022-12-24T22:55:36.457Z,3.61
2022-12-24T22:59:39.414Z,3.59
2022-12-24T23:03:41.421Z,3.58
2022-12-24T23:07:43.327Z,3.58
2022-12-24T23:11:45.327Z,3.57
2022-12-24T23:15:47.358Z,3.55
2022-12-24T23:19:49.890Z,3.50
2022-12-24T23:23:52.335Z,3.46
2022-12-24T23:27:54.222Z,3.43
2022-12-24T23:31:56.271Z,3.43
2022-12-24T23:35:58.373Z,3.44
2022-12-24T23:40:00.179Z,3.42
2022-12-24T23:44:02.169Z,3.34
2022-12-24T23:48:04.268Z,3.28
2022-12-24T23:52:07.159Z,3.25
2022-12-24T23:56:11.060Z,3.20
